createdAt,value
2022-11-14T00:04:29.249Z,17.13
2022-11-14T00:09:51.409Z,18.67
2022-11-14T00:15:13.776Z,18.45
2022-11-14T00:20:35.834Z,25.75
2022-11-14T00:25:57.871Z,16.90
2022-11-14T00:31:19.646Z,17.10
2022-11-14T00:36:41.490Z,18.40
2022-11-14T00:42:03.397Z,18.23
2022-11-14T00:47:25.169Z,18.17
2022-11-14T00:52:46.958Z,17.92
2022-11-14T00:58:09.387Z,17.88
2022-11-14T01:03:31.200Z,18.17
2022-11-14T01:08:53.078Z,17.65
2022-11-14T01:14:14.904Z,18.20
2022-11-14T01:19:36.685Z,18.52
2022-11-14T01:24:59.006Z,19.30
2022-11-14T01:30:20.792Z,17.70
2022-11-14T01:35:42.571Z,17.85
2022-11-14T01:41:05.086Z,17.00
2022-11-14T01:46:37.420Z,18.00
2022-11-14T01:52:03.766Z,15.35
2022-11-14T01:57:30.945Z,16.88
2022-11-14T02:02:53.728Z,15.38
2022-11-14T02:08:16.554Z,17.42
2022-11-14T02:13:38.552Z,17.42
2022-11-14T02:19:00.348Z,16.17
2022-11-14T02:24:22.124Z,16.10
2022-11-14T02:29:43.924Z,16.02
2022-11-14T02:35:06.257Z,15.35
2022-11-14T02:40:28.063Z,16.42
2022-11-14T02:45:49.899Z,15.68
2022-11-14T02:51:11.671Z,15.70
2022-11-14T02:56:33.616Z,15.52
2022-11-14T03:01:55.554Z,13.75
2022-11-14T03:07:17.553Z,13.15
2022-11-14T03:12:39.712Z,12.50
2022-11-14T03:18:01.495Z,13.07
2022-11-14T03:23:23.254Z,12.55
2022-11-14T03:28:45.058Z,13.15
2022-11-14T03:34:06.890Z,14.32
2022-11-14T03:39:28.760Z,13.27
2022-11-14T03:44:50.636Z,14.57
2022-11-14T03:50:12.433Z,14.50
2022-11-14T03:55:34.399Z,13.07
2022-11-14T04:00:56.531Z,14.13
2022-11-14T04:06:18.322Z,14.70
2022-11-14T04:11:40.092Z,14.35
2022-11-14T04:17:01.869Z,15.57
2022-11-14T04:22:23.748Z,15.13
2022-11-14T04:27:45.524Z,16.17
2022-11-14T04:33:07.323Z,16.77
2022-11-14T04:38:29.462Z,15.88
2022-11-14T04:43:51.446Z,15.88
2022-11-14T04:49:13.220Z,16.67
2022-11-14T04:54:35.070Z,16.20
2022-11-14T04:59:56.840Z,16.17
2022-11-14T05:05:19.010Z,16.33
2022-11-14T05:10:44.858Z,16.88
2022-11-14T05:16:06.735Z,16.10
2022-11-14T05:21:28.547Z,15.25
2022-11-14T05:26:50.336Z,15.95
2022-11-14T05:32:16.081Z,15.43
2022-11-14T05:37:38.365Z,16.10
2022-11-14T05:43:00.144Z,15.25
2022-11-14T05:48:21.933Z,17.63
2022-11-14T05:53:43.821Z,17.52
2022-11-14T05:59:05.677Z,18.90
2022-11-14T06:04:27.486Z,19.08
2022-11-14T06:09:49.347Z,20.88
2022-11-14T06:15:11.151Z,22.17
2022-11-14T06:20:32.937Z,24.30
2022-11-14T06:26:01.892Z,25.30
2022-11-14T06:31:24.509Z,22.10
2022-11-14T06:36:46.277Z,21.80
2022-11-14T06:42:08.147Z,20.88
2022-11-14T06:47:29.957Z,18.67
2022-11-14T06:52:51.988Z,16.83
2022-11-14T06:58:13.791Z,14.63
2022-11-14T07:03:35.563Z,13.60
2022-11-14T07:08:58.158Z,14.07
2022-11-14T07:14:19.929Z,12.35
2022-11-14T07:19:41.722Z,11.07
2022-11-14T07:25:03.655Z,11.75
2022-11-14T07:30:25.485Z,10.95
2022-11-14T07:35:47.269Z,9.70
2022-11-14T07:41:14.636Z,9.15
2022-11-14T07:46:36.458Z,8.10
2022-11-14T07:51:58.242Z,6.65
2022-11-14T07:57:20.036Z,6.90
2022-11-14T08:02:41.857Z,6.10
2022-11-14T08:08:04.761Z,7.32
2022-11-14T08:13:32.559Z,6.90
2022-11-14T08:18:55.338Z,7.18
2022-11-14T08:24:17.147Z,7.88
2022-11-14T08:29:38.951Z,10.02
2022-11-14T08:35:00.746Z,9.60
2022-11-14T08:40:22.560Z,8.80
2022-11-14T08:45:44.503Z,9.52
2022-11-14T08:51:06.863Z,9.48
2022-11-14T08:56:28.669Z,7.90
2022-11-14T09:01:50.444Z,5.60
2022-11-14T09:07:12.318Z,5.78
2022-11-14T09:12:34.481Z,5.65
2022-11-14T09:17:58.080Z,5.03
2022-11-14T09:23:19.890Z,5.15
2022-11-14T09:28:41.828Z,4.43
2022-11-14T09:34:03.616Z,5.95
2022-11-14T09:39:25.431Z,5.80
2022-11-14T09:44:57.306Z,5.70
2022-11-14T09:50:31.445Z,6.10
2022-11-14T09:55:53.291Z,6.97
2022-11-14T10:01:25.417Z,5.75
2022-11-14T10:07:08.626Z,7.07
2022-11-14T10:12:55.142Z,7.00
2022-11-14T10:23:56.065Z,5.03
2022-11-14T10:29:42.763Z,6.13
2022-11-14T10:35:14.705Z,5.90
2022-11-14T10:40:46.520Z,6.80
2022-11-14T10:46:17.940Z,7.43
2022-11-14T10:51:44.075Z,8.82
2022-11-14T10:57:18.219Z,9.50
2022-11-14T11:02:54.646Z,10.07
2022-11-14T11:08:42.080Z,9.65
2022-11-14T11:14:03.300Z,9.70
2022-11-14T11:19:27.157Z,11.02
2022-11-14T11:24:49.046Z,12.15
2022-11-14T11:30:21.260Z,12.65
2022-11-14T11:35:44.733Z,12.93
2022-11-14T11:42:06.136Z,12.65
2022-11-14T11:47:16.072Z,14.05
2022-11-14T11:53:15.710Z,11.50
2022-11-14T11:58:40.607Z,9.02
2022-11-14T12:04:02.534Z,10.57
2022-11-14T12:10:08.761Z,9.90
2022-11-14T12:15:47.546Z,10.00
2022-11-14T12:21:31.785Z,9.30
2022-11-14T12:27:05.860Z,9.02
2022-11-14T12:33:16.236Z,10.63
2022-11-14T12:38:52.735Z,13.60
2022-11-14T12:49:48.536Z,18.05
2022-11-14T12:55:22.638Z,16.35
2022-11-14T13:00:44.387Z,18.48
2022-11-14T13:06:17.593Z,19.60
2022-11-14T13:11:45.097Z,20.58
2022-11-14T13:17:27.508Z,25.27
2022-11-14T13:22:49.400Z,25.17
2022-11-14T13:28:36.021Z,24.60
2022-11-14T13:34:02.151Z,24.77
2022-11-14T13:39:38.001Z,23.65
2022-11-14T13:45:28.148Z,21.97
2022-11-14T13:50:55.409Z,22.08
2022-11-14T13:56:49.557Z,22.55
2022-11-14T14:02:11.356Z,19.77
2022-11-14T14:08:10.439Z,20.88
2022-11-14T14:14:15.038Z,20.70
2022-11-14T14:19:58.576Z,25.38
2022-11-14T14:25:20.357Z,24.73
2022-11-14T14:31:01.112Z,26.90
2022-11-14T14:36:28.452Z,28.33
2022-11-14T14:41:50.409Z,24.63
2022-11-14T14:47:17.884Z,24.98
2022-11-14T14:52:39.685Z,26.02
2022-11-14T14:58:25.455Z,22.85
2022-11-14T15:03:56.137Z,19.57
2022-11-14T15:09:23.609Z,17.85
2022-11-14T15:14:46.380Z,15.75
2022-11-14T15:20:22.388Z,15.13
2022-11-14T15:25:44.709Z,16.25
2022-11-14T15:31:07.029Z,16.38
2022-11-14T15:36:29.036Z,16.55
2022-11-14T15:42:13.297Z,18.23
2022-11-14T15:47:40.060Z,17.38
2022-11-14T15:53:06.454Z,18.33
2022-11-14T15:58:40.148Z,16.55
2022-11-14T16:04:04.040Z,17.37
2022-11-14T16:09:26.036Z,17.60
2022-11-14T16:14:47.833Z,17.52
2022-11-14T16:20:21.163Z,16.40
2022-11-14T16:25:42.956Z,15.90
2022-11-14T16:31:11.766Z,14.38
2022-11-14T16:36:34.856Z,17.17
2022-11-14T16:42:01.555Z,15.90
2022-11-14T16:52:45.279Z,10.30
2022-11-14T16:58:07.054Z,10.68
2022-11-14T17:03:29.138Z,13.27
2022-11-14T17:08:56.999Z,13.13
2022-11-14T17:14:18.988Z,13.02
2022-11-14T17:19:40.906Z,12.23
2022-11-14T17:25:02.780Z,12.90
2022-11-14T17:30:24.608Z,11.48
2022-11-14T17:35:46.425Z,12.18
2022-11-14T17:41:08.263Z,11.30
2022-11-14T17:46:31.023Z,10.88
2022-11-14T17:51:52.841Z,13.13
2022-11-14T17:57:14.683Z,11.30
2022-11-14T18:02:36.464Z,11.30
2022-11-14T18:07:58.235Z,11.95
2022-11-14T18:13:20.039Z,12.98
2022-11-14T18:18:42.272Z,14.07
2022-11-14T18:24:04.383Z,14.60
2022-11-14T18:29:26.192Z,13.02
2022-11-14T18:34:47.999Z,12.30
2022-11-14T18:40:15.878Z,12.68
2022-11-14T18:45:38.558Z,12.90
2022-11-14T18:51:02.310Z,13.35
2022-11-14T18:56:24.251Z,14.63
2022-11-14T19:01:46.191Z,13.50
2022-11-14T19:07:08.291Z,13.90
2022-11-14T19:12:30.085Z,13.73
2022-11-14T19:17:51.899Z,13.73
2022-11-14T19:23:13.742Z,13.85
2022-11-14T19:28:35.556Z,13.65
2022-11-14T19:33:57.399Z,16.05
2022-11-14T19:39:19.421Z,15.68
2022-11-14T19:44:41.300Z,15.30
2022-11-14T19:50:03.240Z,16.15
2022-11-14T19:55:25.085Z,15.25
2022-11-14T20:00:46.959Z,15.40
2022-11-14T20:06:20.997Z,15.20
2022-11-14T20:11:42.882Z,15.45
2022-11-14T20:17:04.732Z,15.65
2022-11-14T20:22:26.557Z,15.38
2022-11-14T20:27:48.369Z,16.05
2022-11-14T20:33:10.578Z,16.63
2022-11-14T20:38:32.456Z,16.63
2022-11-14T20:43:54.289Z,17.20
2022-11-14T20:49:16.226Z,16.75
2022-11-14T20:54:38.004Z,15.98
2022-11-14T20:59:59.858Z,17.02
2022-11-14T21:05:21.638Z,16.70
2022-11-14T21:10:46.136Z,17.42
2022-11-14T21:16:14.549Z,17.92
2022-11-14T21:21:37.384Z,18.45
2022-11-14T21:26:59.176Z,16.85
2022-11-14T21:32:20.942Z,18.48
2022-11-14T21:37:42.720Z,17.50
2022-11-14T21:43:04.513Z,18.65
2022-11-14T21:48:30.272Z,18.13
2022-11-14T21:53:58.803Z,18.43
2022-11-14T21:59:20.658Z,19.90
2022-11-14T22:04:42.502Z,19.15
2022-11-14T22:10:04.942Z,19.13
2022-11-14T22:15:26.799Z,18.35
2022-11-14T22:20:48.982Z,16.92
2022-11-14T22:26:11.771Z,18.80
2022-11-14T22:31:33.696Z,18.83
2022-11-14T22:36:55.633Z,19.75
2022-11-14T22:42:17.461Z,18.55
2022-11-14T22:47:39.298Z,23.52
2022-11-14T22:53:01.141Z,15.70
2022-11-14T22:58:23.298Z,15.68
2022-11-14T23:03:45.244Z,14.75
2022-11-14T23:09:07.168Z,15.70
2022-11-14T23:14:28.967Z,14.95
2022-11-14T23:19:50.763Z,16.40
2022-11-14T23:25:12.966Z,16.70
2022-11-14T23:30:35.121Z,18.48
2022-11-14T23:35:56.966Z,15.20
2022-11-14T23:41:23.629Z,16.75
2022-11-14T23:52:07.153Z,15.70
2022-11-14T23:57:29.129Z,17.00
